Time;durP1;ratioP1;P1;durP2;ratioP2;P2;SDS_P1;SDS_P2;PMS_P1;PMS_P2;Temp;Humidity;BMP_temperature;BMP_pressure;BME280_temperature;BME280_humidity;BME280_pressure;Samples;Min_cycle;Max_cycle;Signal;HPM_P1;HPM_P2
2022/12/23 00:00:53;;;;;;;1.15;1.15;;;6.70;99.90;;;;;;4872135;29;20057;-88
2022/12/23 00:03:21;;;;;;;1.05;0.95;;;6.60;99.90;;;;;;4858144;29;20041;-87
2022/12/23 00:05:49;;;;;;;2.70;1.15;;;6.50;99.90;;;;;;4887839;29;20052;-87
2022/12/23 00:08:16;;;;;;;1.10;1.05;;;6.40;99.90;;;;;;4857393;29;20053;-87
2022/12/23 00:10:44;;;;;;;1.20;1.10;;;6.40;99.90;;;;;;4858405;29;20057;-87
2022/12/23 00:16:13;;;;;;;0.98;0.98;;;6.30;99.90;;;;;;4857689;29;20049;-86
2022/12/23 00:18:42;;;;;;;2.25;1.90;;;6.20;99.90;;;;;;4872454;29;20136;-86
2022/12/23 00:21:12;;;;;;;2.85;1.63;;;6.30;99.90;;;;;;4884729;29;20060;-86
2022/12/23 00:23:43;;;;;;;2.42;1.40;;;6.40;99.90;;;;;;4894146;29;20495;-85
2022/12/23 00:26:21;;;;;;;3.08;1.08;;;6.40;99.90;;;;;;4869974;29;20048;-86
2022/12/23 00:28:49;;;;;;;3.88;2.10;;;6.40;99.90;;;;;;4877859;29;20045;-85
2022/12/23 00:31:18;;;;;;;4.20;2.00;;;6.40;99.90;;;;;;4894854;29;20069;-86
2022/12/23 00:33:49;;;;;;;4.20;1.40;;;6.50;99.90;;;;;;4894620;29;20040;-85
2022/12/23 00:36:23;;;;;;;2.75;1.52;;;6.40;99.90;;;;;;4894738;29;20049;-86
2022/12/23 00:44:24;;;;;;;2.70;1.10;;;6.50;99.90;;;;;;4875833;29;20057;-87
2022/12/23 00:46:52;;;;;;;1.88;1.05;;;6.50;99.90;;;;;;4874923;29;20053;-86
2022/12/23 00:52:12;;;;;;;1.17;1.10;;;6.20;99.90;;;;;;4879725;29;20050;-86
2022/12/23 00:54:40;;;;;;;2.88;1.48;;;6.20;99.90;;;;;;4858192;29;20057;-86
2022/12/23 00:57:08;;;;;;;3.38;1.38;;;6.20;99.90;;;;;;4855345;29;20045;-86
2022/12/23 00:59:36;;;;;;;5.65;1.40;;;6.20;99.90;;;;;;4855747;29;20407;-87
2022/12/23 01:07:41;;;;;;;3.70;1.95;;;6.30;99.90;;;;;;4885584;29;20053;-86
2022/12/23 01:10:09;;;;;;;2.78;1.15;;;6.40;99.90;;;;;;4839609;29;20489;-86
2022/12/23 01:12:36;;;;;;;2.53;1.20;;;6.30;99.90;;;;;;4886442;29;20057;-86
2022/12/23 01:15:04;;;;;;;1.58;1.27;;;6.10;99.90;;;;;;4840819;29;20681;-86
2022/12/23 01:17:32;;;;;;;2.17;1.90;;;6.00;99.90;;;;;;4856707;29;20048;-86
2022/12/23 01:19:59;;;;;;;3.25;2.20;;;5.90;99.90;;;;;;4866302;29;20680;-86
2022/12/23 01:22:27;;;;;;;3.60;1.92;;;5.90;99.90;;;;;;4906907;29;20040;-86
2022/12/23 01:24:55;;;;;;;6.22;2.22;;;5.90;99.90;;;;;;4892444;29;20052;-87
2022/12/23 01:27:22;;;;;;;2.20;2.00;;;5.80;99.90;;;;;;4877826;29;20052;-86
2022/12/23 01:29:50;;;;;;;1.75;1.45;;;5.80;99.90;;;;;;4876674;29;20417;-86
2022/12/23 01:32:18;;;;;;;2.38;1.73;;;5.80;99.90;;;;;;4891425;29;20048;-86
2022/12/23 01:34:46;;;;;;;3.25;1.88;;;5.80;99.90;;;;;;4892673;29;20052;-86
2022/12/23 01:37:13;;;;;;;3.33;2.58;;;5.70;99.90;;;;;;4875532;29;20049;-85
2022/12/23 01:39:41;;;;;;;4.35;2.22;;;5.70;99.90;;;;;;4861808;29;20064;-86
2022/12/23 01:45:00;;;;;;;3.20;2.72;;;5.70;99.90;;;;;;4875056;29;20060;-85
2022/12/23 01:47:51;;;;;;;4.60;4.15;;;5.70;99.90;;;;;;4904029;29;20068;-85
2022/12/23 01:50:29;;;;;;;5.07;2.72;;;5.60;99.90;;;;;;4902994;29;20049;-86
2022/12/23 01:53:07;;;;;;;2.97;2.75;;;5.50;99.90;;;;;;4903131;29;20045;-85
2022/12/23 01:56:03;;;;;;;3.10;2.80;;;5.40;99.90;;;;;;4873558;29;20057;-85
2022/12/23 01:58:36;;;;;;;2.78;2.58;;;5.40;99.90;;;;;;4885717;29;20041;-86
2022/12/23 02:03:56;;;;;;;4.95;3.17;;;5.40;99.90;;;;;;4888790;29;20049;-85
2022/12/23 02:09:29;;;;;;;3.40;2.97;;;5.50;99.90;;;;;;4874421;29;20045;-85
2022/12/23 02:12:08;;;;;;;3.83;3.53;;;5.50;99.90;;;;;;4874224;29;20045;-86
2022/12/23 02:18:02;;;;;;;3.83;2.53;;;5.50;99.90;;;;;;4875230;29;20060;-85
2022/12/23 02:20:59;;;;;;;2.83;1.85;;;5.40;99.90;;;;;;4897506;29;20056;-85
2022/12/23 02:23:39;;;;;;;2.83;2.08;;;5.60;99.90;;;;;;4878119;29;20049;-85
2022/12/23 02:26:13;;;;;;;3.42;2.97;;;5.50;99.90;;;;;;4878039;29;20049;-85
2022/12/23 02:28:56;;;;;;;2.60;2.38;;;5.40;99.90;;;;;;4876933;29;20553;-85
2022/12/23 02:31:46;;;;;;;2.35;2.20;;;5.40;99.90;;;;;;4878287;29;20272;-85
2022/12/23 02:34:19;;;;;;;5.82;2.70;;;5.50;99.90;;;;;;4877759;29;20051;-84
2022/12/23 02:37:02;;;;;;;8.43;2.58;;;5.50;99.90;;;;;;4878260;29;20536;-85
2022/12/23 02:39:44;;;;;;;4.20;2.40;;;5.50;99.90;;;;;;4892714;29;20064;-85
2022/12/23 02:42:16;;;;;;;2.30;2.10;;;5.50;99.90;;;;;;4876660;29;20053;-85
2022/12/23 02:44:53;;;;;;;2.75;2.55;;;5.50;99.90;;;;;;4892543;29;20373;-84
2022/12/23 02:47:25;;;;;;;3.63;2.50;;;5.60;99.90;;;;;;4908332;29;20472;-84
2022/12/23 02:49:56;;;;;;;2.78;2.05;;;5.60;99.90;;;;;;4892001;29;20068;-85
2022/12/23 02:52:31;;;;;;;3.05;2.25;;;5.60;99.90;;;;;;4906509;29;20056;-85
2022/12/23 02:55:11;;;;;;;1.92;1.83;;;5.60;99.90;;;;;;4908339;29;20061;-85
2022/12/23 02:57:42;;;;;;;2.33;1.92;;;5.70;99.90;;;;;;4907609;29;20045;-85
2022/12/23 03:00:12;;;;;;;2.20;2.05;;;5.80;99.90;;;;;;4877126;29;20418;-85
2022/12/23 03:02:40;;;;;;;2.60;2.05;;;5.80;99.90;;;;;;4906823;29;20056;-85
2022/12/23 03:05:29;;;;;;;4.90;2.78;;;5.90;99.90;;;;;;4907523;29;20053;-85
2022/12/23 03:08:03;;;;;;;1.95;1.70;;;5.90;99.90;;;;;;4906651;29;20314;-85
2022/12/23 03:10:54;;;;;;;4.13;1.63;;;5.90;99.90;;;;;;4891253;29;20096;-85
2022/12/23 03:14:06;;;;;;;3.70;1.75;;;5.90;99.90;;;;;;4877512;29;20053;-86
2022/12/23 03:16:39;;;;;;;5.28;2.40;;;6.00;99.90;;;;;;4875345;29;20045;-85
2022/12/23 03:19:28;;;;;;;2.42;1.35;;;5.90;99.90;;;;;;4877554;29;20074;-85
2022/12/23 03:22:06;;;;;;;5.10;2.20;;;6.00;99.90;;;;;;4887359;29;20116;-85
2022/12/23 03:24:43;;;;;;;1.95;1.38;;;6.00;99.90;;;;;;4888123;29;20049;-85
2022/12/23 03:27:38;;;;;;;1.40;1.30;;;6.10;99.90;;;;;;4889679;29;20560;-85
2022/12/23 03:30:11;;;;;;;3.35;1.90;;;6.20;99.90;;;;;;4857926;29;20057;-85
2022/12/23 03:32:47;;;;;;;1.33;1.23;;;6.20;99.90;;;;;;4842232;29;20050;-85
2022/12/23 03:35:28;;;;;;;1.00;1.00;;;6.30;99.90;;;;;;4857408;29;20057;-84
2022/12/23 03:37:58;;;;;;;2.30;1.02;;;6.60;99.90;;;;;;4871250;29;20041;-84
2022/12/23 03:40:30;;;;;;;0.70;0.70;;;6.90;99.90;;;;;;4841384;29;20049;-84
2022/12/23 03:43:03;;;;;;;1.05;0.93;;;7.20;99.90;;;;;;4859217;29;20113;-84
2022/12/23 03:45:40;;;;;;;0.60;0.60;;;7.40;99.90;;;;;;4888205;29;20054;-84
2022/12/23 03:48:18;;;;;;;0.80;0.80;;;7.60;99.90;;;;;;4843749;29;20068;-85
2022/12/23 03:50:51;;;;;;;1.05;1.05;;;7.50;99.90;;;;;;4842389;29;20065;-83
2022/12/23 03:53:28;;;;;;;0.70;0.70;;;7.50;99.90;;;;;;4874693;29;20382;-85
2022/12/23 03:56:01;;;;;;;0.63;0.63;;;7.60;99.90;;;;;;4891416;29;20143;-82
2022/12/23 03:58:34;;;;;;;0.70;0.60;;;7.70;99.90;;;;;;4876548;29;20056;-83
2022/12/23 04:01:27;;;;;;;1.03;1.03;;;7.80;99.90;;;;;;4877120;29;20056;-84
2022/12/23 04:04:05;;;;;;;0.60;0.60;;;7.90;99.90;;;;;;4897110;29;20692;-84
2022/12/23 04:06:50;;;;;;;0.75;0.75;;;7.90;99.90;;;;;;4882334;29;20060;-85
2022/12/23 04:09:21;;;;;;;0.70;0.70;;;7.90;99.90;;;;;;4896210;29;20052;-84
2022/12/23 04:11:51;;;;;;;0.60;0.60;;;8.00;99.90;;;;;;4914465;29;20063;-84
2022/12/23 04:14:20;;;;;;;0.70;0.70;;;8.00;99.90;;;;;;4914875;29;20507;-83
2022/12/23 04:16:52;;;;;;;0.47;0.47;;;8.10;99.90;;;;;;4914194;29;20048;-83
2022/12/23 04:19:20;;;;;;;0.60;0.60;;;8.20;99.90;;;;;;4913325;29;20051;-83
2022/12/23 04:21:48;;;;;;;0.60;0.60;;;8.20;99.90;;;;;;4931569;28;20144;-84
2022/12/23 04:24:15;;;;;;;0.47;0.47;;;8.20;99.90;;;;;;4931916;29;20048;-83
2022/12/23 04:26:43;;;;;;;1.15;0.75;;;8.20;99.90;;;;;;4900836;29;20063;-85
2022/12/23 04:29:11;;;;;;;0.63;0.63;;;8.30;99.90;;;;;;4915653;28;20048;-84
2022/12/23 04:31:39;;;;;;;0.60;0.60;;;8.20;99.90;;;;;;4947909;29;20293;-84
2022/12/23 04:34:07;;;;;;;4.22;0.95;;;8.40;99.90;;;;;;4946752;28;20044;-84
2022/12/23 04:36:40;;;;;;;0.50;0.50;;;8.30;99.90;;;;;;4946712;28;20043;-82
2022/12/23 04:39:09;;;;;;;0.60;0.60;;;8.40;99.90;;;;;;4920102;29;20416;-84
2022/12/23 04:41:36;;;;;;;0.57;0.57;;;8.50;99.90;;;;;;4913251;29;20416;-83
2022/12/23 04:44:05;;;;;;;0.85;0.85;;;8.50;99.90;;;;;;4927259;29;20052;-84
2022/12/23 04:46:32;;;;;;;0.40;0.40;;;8.50;99.90;;;;;;4928162;29;20052;-83
2022/12/23 04:49:01;;;;;;;0.65;0.65;;;8.60;99.90;;;;;;4913439;29;20048;-84
2022/12/23 04:51:28;;;;;;;0.50;0.50;;;8.60;99.90;;;;;;4893798;29;20376;-85
2022/12/23 04:53:56;;;;;;;0.50;0.50;;;8.70;99.90;;;;;;4892060;29;20365;-84
2022/12/23 04:56:25;;;;;;;0.50;0.50;;;8.60;99.90;;;;;;4894472;29;20064;-84
2022/12/23 04:58:52;;;;;;;0.60;0.50;;;8.70;99.90;;;;;;4862935;29;20417;-84
2022/12/23 05:01:20;;;;;;;0.60;0.60;;;8.60;99.90;;;;;;4876828;29;20052;-83
2022/12/23 05:03:48;;;;;;;0.40;0.40;;;8.70;99.90;;;;;;4894225;29;20049;-84
2022/12/23 05:06:15;;;;;;;0.75;0.60;;;8.80;99.90;;;;;;4893576;29;20056;-84
2022/12/23 05:08:43;;;;;;;0.50;0.50;;;8.70;99.90;;;;;;4907535;29;20052;-83
2022/12/23 05:11:11;;;;;;;0.60;0.60;;;8.70;99.90;;;;;;4863165;29;20068;-83
2022/12/23 05:13:39;;;;;;;0.50;0.50;;;8.80;99.90;;;;;;4892734;29;20769;-84
2022/12/23 05:16:06;;;;;;;0.40;0.40;;;8.80;99.90;;;;;;4894020;29;20055;-83
2022/12/23 05:18:34;;;;;;;0.50;0.50;;;8.80;99.90;;;;;;4877606;29;20056;-84
2022/12/23 05:21:03;;;;;;;0.50;0.50;;;8.80;99.90;;;;;;4877194;29;20040;-84
2022/12/23 05:23:31;;;;;;;0.95;0.50;;;8.90;99.90;;;;;;4907234;29;20057;-83
2022/12/23 05:25:59;;;;;;;0.45;0.45;;;8.90;99.90;;;;;;4892858;29;20063;-83
2022/12/23 05:28:27;;;;;;;0.50;0.50;;;8.90;99.90;;;;;;4893947;29;20040;-84
2022/12/23 05:31:04;;;;;;;0.50;0.47;;;9.00;99.90;;;;;;4908768;29;20052;-83
2022/12/23 05:33:35;;;;;;;1.77;0.50;;;8.90;99.90;;;;;;4893832;29;20037;-84
2022/12/23 05:36:04;;;;;;;0.50;0.50;;;8.90;99.90;;;;;;4877437;29;20240;-82
2022/12/23 05:38:32;;;;;;;0.50;0.50;;;9.00;99.90;;;;;;4928360;28;20052;-84
2022/12/23 05:41:01;;;;;;;0.50;0.50;;;9.00;99.90;;;;;;4926613;28;20066;-83
2022/12/23 05:43:28;;;;;;;0.40;0.40;;;8.90;99.90;;;;;;4895811;29;20635;-84
2022/12/23 05:45:57;;;;;;;0.50;0.50;;;9.00;99.90;;;;;;4926935;29;20266;-85
2022/12/23 05:48:25;;;;;;;0.60;0.60;;;9.00;99.90;;;;;;4895124;29;20036;-83
2022/12/23 05:50:52;;;;;;;4.43;1.67;;;9.00;99.90;;;;;;4925426;29;20055;-85
2022/12/23 05:53:20;;;;;;;0.55;0.55;;;9.00;99.90;;;;;;4909810;29;20040;-82
2022/12/23 05:55:48;;;;;;;1.30;0.60;;;9.10;99.90;;;;;;4931119;29;20463;-82
2022/12/23 05:58:16;;;;;;;0.50;0.50;;;9.10;99.90;;;;;;4930609;29;20052;-82
2022/12/23 06:00:47;;;;;;;;;;;9.10;99.90;;;;;;4916513;28;20051;-83
2022/12/23 06:03:15;;;;;;;0.60;0.60;;;9.10;99.90;;;;;;4931075;29;19923;-83
2022/12/23 06:05:43;;;;;;;0.50;0.50;;;9.10;99.90;;;;;;4929964;29;20527;-82
2022/12/23 06:08:10;;;;;;;0.40;0.40;;;9.10;99.90;;;;;;4928431;28;20059;-82
2022/12/23 06:10:38;;;;;;;0.40;0.40;;;9.00;99.90;;;;;;4946650;29;20062;-83
2022/12/23 06:13:06;;;;;;;0.50;0.50;;;9.00;99.90;;;;;;4930527;29;20040;-83
2022/12/23 06:15:33;;;;;;;0.50;0.50;;;9.00;99.90;;;;;;4945233;29;20051;-84
2022/12/23 06:18:01;;;;;;;0.50;0.50;;;9.00;99.90;;;;;;4945798;28;20050;-82
2022/12/23 06:20:29;;;;;;;0.60;0.60;;;9.00;99.90;;;;;;4920573;28;20052;-84
2022/12/23 06:22:57;;;;;;;0.50;0.50;;;9.00;99.90;;;;;;4891974;29;20057;-83
2022/12/23 06:25:24;;;;;;;0.60;0.60;;;9.00;99.90;;;;;;4876696;29;20064;-83
2022/12/23 06:27:52;;;;;;;0.50;0.50;;;9.00;99.90;;;;;;4876736;29;20130;-82
2022/12/23 06:30:19;;;;;;;0.50;0.50;;;9.00;99.90;;;;;;4893849;29;20056;-83
2022/12/23 06:32:47;;;;;;;0.70;0.70;;;9.00;99.90;;;;;;4907299;29;20067;-83
2022/12/23 06:35:15;;;;;;;0.70;0.70;;;9.20;99.90;;;;;;4908097;29;20505;-83
2022/12/23 06:37:43;;;;;;;0.50;0.50;;;9.20;99.90;;;;;;4903908;29;20532;-83
2022/12/23 06:40:11;;;;;;;0.57;0.57;;;9.20;99.90;;;;;;4927297;29;20051;-83
2022/12/23 06:42:39;;;;;;;5.88;0.63;;;9.20;99.90;;;;;;4895570;29;20550;-83
2022/12/23 06:45:07;;;;;;;0.43;0.43;;;9.20;99.90;;;;;;4912041;29;20063;-84
2022/12/23 06:47:36;;;;;;;2.47;0.50;;;9.20;99.90;;;;;;4912207;29;20071;-83
2022/12/23 06:50:04;;;;;;;0.60;0.60;;;9.20;99.90;;;;;;4911145;29;20044;-84
2022/12/23 06:52:31;;;;;;;0.70;0.50;;;9.10;99.90;;;;;;4910510;29;20404;-84
2022/12/23 06:54:59;;;;;;;1.60;0.70;;;9.00;99.90;;;;;;4895252;29;20528;-83
2022/12/23 06:57:26;;;;;;;0.50;0.50;;;9.00;99.90;;;;;;4894579;29;20527;-83
2022/12/23 06:59:54;;;;;;;0.60;0.60;;;8.90;99.90;;;;;;4910380;29;20695;-84
2022/12/23 07:02:22;;;;;;;2.47;0.70;;;8.90;99.90;;;;;;4858282;29;20436;-84
2022/12/23 07:04:50;;;;;;;0.60;0.60;;;8.90;99.90;;;;;;4858570;29;20049;-84
2022/12/23 07:07:18;;;;;;;0.68;0.68;;;8.90;99.90;;;;;;4858620;29;20069;-84
2022/12/23 07:09:45;;;;;;;0.50;0.50;;;8.90;99.90;;;;;;4861279;29;20260;-84
2022/12/23 07:12:13;;;;;;;0.57;0.57;;;8.90;99.90;;;;;;4876118;29;20057;-85
2022/12/23 07:14:41;;;;;;;0.80;0.80;;;8.90;99.90;;;;;;4891957;29;20061;-84
2022/12/23 07:17:09;;;;;;;0.55;0.55;;;8.90;99.90;;;;;;4878112;29;20052;-84
2022/12/23 07:19:37;;;;;;;0.60;0.60;;;8.90;99.90;;;;;;4854576;29;20465;-84
2022/12/23 07:22:09;;;;;;;0.80;0.80;;;9.00;99.90;;;;;;4862710;29;20051;-85
2022/12/23 07:24:36;;;;;;;0.82;0.75;;;8.90;99.90;;;;;;4879896;29;20051;-85
2022/12/23 07:27:04;;;;;;;0.95;0.60;;;8.90;99.90;;;;;;4879725;29;20068;-85
2022/12/23 07:29:31;;;;;;;3.25;0.95;;;8.90;99.90;;;;;;4863572;29;20060;-86
2022/12/23 07:32:01;;;;;;;0.60;0.60;;;8.90;99.90;;;;;;4894639;29;20060;-84
2022/12/23 07:34:29;;;;;;;1.95;0.73;;;8.80;99.90;;;;;;4885223;29;20068;-85
2022/12/23 07:36:56;;;;;;;0.60;0.60;;;8.80;99.90;;;;;;4860325;29;20045;-84
2022/12/23 07:39:24;;;;;;;0.60;0.60;;;8.80;99.90;;;;;;4891006;29;20413;-85
2022/12/23 07:41:52;;;;;;;2.13;1.05;;;8.80;99.90;;;;;;4860013;29;20513;-85
2022/12/23 07:44:39;;;;;;;2.38;0.73;;;8.80;99.90;;;;;;4876519;29;20056;-84
2022/12/23 07:47:07;;;;;;;1.58;0.70;;;8.80;99.90;;;;;;4877669;29;20391;-84
2022/12/23 07:49:39;;;;;;;0.63;0.63;;;8.80;99.90;;;;;;4876985;29;20053;-83
2022/12/23 07:52:09;;;;;;;0.55;0.55;;;8.80;99.90;;;;;;4875924;29;20045;-84
2022/12/23 07:54:36;;;;;;;1.02;1.00;;;8.80;99.90;;;;;;4860135;29;20053;-83
2022/12/23 07:57:04;;;;;;;0.90;0.90;;;8.80;99.90;;;;;;4870253;29;20060;-83
2022/12/23 07:59:32;;;;;;;0.85;0.85;;;8.90;99.90;;;;;;4845422;29;20065;-84
2022/12/23 08:02:00;;;;;;;0.68;0.68;;;9.00;99.90;;;;;;4876444;29;20053;-84
2022/12/23 08:04:27;;;;;;;0.88;0.88;;;9.00;99.90;;;;;;4875527;29;20402;-84
2022/12/23 08:06:58;;;;;;;0.80;0.80;;;9.00;99.90;;;;;;4892376;29;20135;-83
2022/12/23 08:09:26;;;;;;;1.00;1.00;;;9.00;99.90;;;;;;4874249;29;20053;-84
2022/12/23 08:11:53;;;;;;;0.68;0.68;;;9.10;99.90;;;;;;4905227;29;20057;-84
2022/12/23 08:14:24;;;;;;;0.70;0.70;;;9.10;99.90;;;;;;4877219;29;20063;-84
2022/12/23 08:16:51;;;;;;;0.70;0.70;;;9.10;99.90;;;;;;4876768;29;20049;-84
2022/12/23 08:19:19;;;;;;;0.60;0.60;;;9.20;99.90;;;;;;4844348;29;20544;-84
2022/12/23 08:21:46;;;;;;;0.70;0.70;;;9.20;99.90;;;;;;4877123;29;20421;-84
2022/12/23 08:24:14;;;;;;;0.50;0.50;;;9.20;99.90;;;;;;4875813;29;20284;-84
2022/12/23 08:26:42;;;;;;;0.57;0.57;;;9.30;99.90;;;;;;4903023;29;20057;-84
2022/12/23 08:29:09;;;;;;;0.77;0.68;;;9.40;99.90;;;;;;4877346;29;20673;-83
2022/12/23 08:31:40;;;;;;;1.15;1.15;;;9.40;99.90;;;;;;4890997;29;20061;-83
2022/12/23 08:34:09;;;;;;;0.65;0.65;;;9.40;99.90;;;;;;4898008;29;20041;-84
2022/12/23 08:36:39;;;;;;;0.70;0.70;;;9.50;99.90;;;;;;4856603;29;20373;-84
2022/12/23 08:39:11;;;;;;;0.60;0.60;;;9.60;99.90;;;;;;4868030;29;20537;-84
2022/12/23 08:41:42;;;;;;;0.55;0.50;;;9.60;99.90;;;;;;4875421;29;20069;-83
2022/12/23 08:44:10;;;;;;;1.27;0.70;;;9.60;99.90;;;;;;4876406;29;20422;-83
2022/12/23 08:46:38;;;;;;;0.60;0.60;;;9.60;99.90;;;;;;4860022;29;20536;-83
2022/12/23 08:49:09;;;;;;;0.70;0.68;;;9.70;99.90;;;;;;4890458;29;20580;-83
2022/12/23 08:51:41;;;;;;;0.70;0.70;;;9.70;99.90;;;;;;4859886;29;20048;-83
2022/12/23 08:54:09;;;;;;;0.63;0.63;;;9.70;99.90;;;;;;4873443;29;20517;-83
2022/12/23 08:56:41;;;;;;;1.05;1.00;;;9.70;99.90;;;;;;4873931;29;20055;-84
2022/12/23 08:59:14;;;;;;;0.50;0.50;;;9.80;99.90;;;;;;4860222;29;20049;-84
2022/12/23 09:01:46;;;;;;;0.40;0.40;;;9.80;99.90;;;;;;4875533;29;20061;-83
2022/12/23 09:04:14;;;;;;;0.50;0.50;;;9.90;99.90;;;;;;4875924;29;20048;-83
2022/12/23 09:06:44;;;;;;;2.47;0.70;;;10.00;99.90;;;;;;4875835;29;20135;-84
2022/12/23 09:09:16;;;;;;;0.77;0.77;;;10.00;99.90;;;;;;4858223;29;20402;-84
2022/12/23 09:11:47;;;;;;;0.70;0.68;;;10.10;99.90;;;;;;4875724;29;20063;-84
2022/12/23 09:14:14;;;;;;;0.88;0.65;;;10.10;99.90;;;;;;4876613;29;20061;-83
2022/12/23 09:16:42;;;;;;;0.60;0.60;;;10.30;99.90;;;;;;4876096;29;20060;-83
2022/12/23 09:19:09;;;;;;;0.60;0.60;;;10.20;99.90;;;;;;4877826;29;20061;-83
2022/12/23 09:21:37;;;;;;;0.68;0.68;;;10.20;99.90;;;;;;4877810;29;20047;-83
2022/12/23 09:24:05;;;;;;;0.57;0.57;;;10.20;99.90;;;;;;4876065;29;25186;-83
2022/12/23 09:26:33;;;;;;;0.60;0.60;;;10.20;99.90;;;;;;4878024;29;20519;-83
2022/12/23 09:29:01;;;;;;;0.50;0.50;;;10.10;99.90;;;;;;4877730;29;20056;-83
2022/12/23 09:31:28;;;;;;;0.50;0.50;;;10.10;99.90;;;;;;4862426;29;20060;-84
2022/12/23 09:34:04;;;;;;;1.85;0.60;;;10.10;99.90;;;;;;4878439;29;20046;-84
2022/12/23 09:36:31;;;;;;;0.80;0.50;;;10.10;99.90;;;;;;4880981;29;20056;-84
2022/12/23 09:38:59;;;;;;;0.60;0.60;;;10.10;99.90;;;;;;4884646;29;20076;-85
2022/12/23 09:41:33;;;;;;;0.73;0.73;;;10.10;99.90;;;;;;4889218;29;20056;-84
2022/12/23 09:44:11;;;;;;;0.80;0.80;;;10.20;99.90;;;;;;4874267;29;20060;-84
2022/12/23 09:46:48;;;;;;;0.52;0.52;;;10.20;99.90;;;;;;4874001;29;20052;-84
2022/12/23 09:49:23;;;;;;;2.58;0.73;;;10.20;99.90;;;;;;4873997;29;20049;-84
2022/12/23 09:51:55;;;;;;;1.05;0.57;;;10.20;99.90;;;;;;4888477;29;20064;-85
2022/12/23 09:54:29;;;;;;;0.50;0.50;;;10.20;99.90;;;;;;4889596;29;20056;-84
2022/12/23 09:57:16;;;;;;;0.93;0.93;;;10.20;99.90;;;;;;4873991;29;20525;-83
2022/12/23 10:00:11;;;;;;;0.60;0.60;;;10.30;99.90;;;;;;4905354;29;20072;-84
2022/12/23 10:02:57;;;;;;;0.55;0.55;;;10.30;99.90;;;;;;4887855;29;20076;-84
2022/12/23 10:05:55;;;;;;;1.08;0.50;;;10.50;99.90;;;;;;4889227;29;20055;-84
2022/12/23 10:08:35;;;;;;;0.73;0.73;;;10.60;99.90;;;;;;4873449;29;20056;-84
2022/12/23 10:11:22;;;;;;;0.82;0.82;;;10.60;99.90;;;;;;4888951;29;20068;-84
2022/12/23 10:14:03;;;;;;;0.70;0.68;;;10.70;99.90;;;;;;4873676;29;20104;-84
2022/12/23 10:16:55;;;;;;;0.50;0.50;;;10.70;99.90;;;;;;4888617;29;20275;-84
2022/12/23 10:19:32;;;;;;;0.63;0.63;;;10.80;99.90;;;;;;4872792;29;20064;-84
2022/12/23 10:22:40;;;;;;;0.50;0.50;;;10.80;99.90;;;;;;4905271;29;20496;-84
2022/12/23 10:25:20;;;;;;;0.40;0.40;;;10.80;99.90;;;;;;4892157;29;20417;-84
2022/12/23 10:27:48;;;;;;;0.60;0.60;;;10.90;99.90;;;;;;4881547;29;20049;-84
2022/12/23 10:30:18;;;;;;;0.50;0.50;;;10.90;99.90;;;;;;4874971;29;20059;-84
2022/12/23 10:33:13;;;;;;;0.90;0.90;;;10.90;99.90;;;;;;4907481;29;20064;-84
2022/12/23 10:36:02;;;;;;;0.50;0.50;;;10.90;99.90;;;;;;4856253;29;20053;-84
2022/12/23 10:38:52;;;;;;;0.60;0.60;;;11.00;99.90;;;;;;4889791;29;20045;-84
2022/12/23 10:41:39;;;;;;;0.50;0.50;;;11.00;99.90;;;;;;4873374;29;20056;-84
2022/12/23 10:44:13;;;;;;;0.50;0.50;;;10.90;99.90;;;;;;4871469;29;20060;-83
2022/12/23 10:47:05;;;;;;;0.55;0.55;;;10.90;99.90;;;;;;4861613;29;20049;-84
2022/12/23 10:49:46;;;;;;;0.57;0.57;;;11.00;99.90;;;;;;4876262;29;20044;-84
2022/12/23 10:52:20;;;;;;;5.57;0.93;;;11.00;99.90;;;;;;4873173;29;20049;-84
2022/12/23 10:54:48;;;;;;;0.43;0.43;;;11.00;99.90;;;;;;4884548;29;20087;-83
2022/12/23 10:57:18;;;;;;;0.65;0.52;;;11.00;99.90;;;;;;4873227;29;20053;-84
2022/12/23 10:59:46;;;;;;;1.27;0.50;;;11.00;99.90;;;;;;4873184;29;20771;-84
2022/12/23 11:02:33;;;;;;;0.77;0.77;;;11.10;99.90;;;;;;4886970;29;20367;-84
2022/12/23 11:05:01;;;;;;;0.70;0.70;;;11.10;99.90;;;;;;4872682;29;20047;-85
2022/12/23 11:07:29;;;;;;;0.85;0.63;;;11.10;99.90;;;;;;4872837;29;20061;-85
2022/12/23 11:10:20;;;;;;;0.70;0.70;;;11.10;99.90;;;;;;4854457;29;20054;-83
2022/12/23 11:12:51;;;;;;;0.50;0.50;;;11.10;99.90;;;;;;4901560;29;20044;-84
2022/12/23 11:15:32;;;;;;;0.80;0.80;;;11.00;99.90;;;;;;4873198;29;20049;-84
2022/12/23 11:18:15;;;;;;;0.75;0.57;;;11.00;99.90;;;;;;4872517;29;20045;-84
2022/12/23 11:21:00;;;;;;;0.60;0.60;;;11.00;99.90;;;;;;4883679;29;20048;-85
2022/12/23 11:23:30;;;;;;;1.42;1.23;;;11.10;99.90;;;;;;4878268;29;20295;-84
2022/12/23 11:26:01;;;;;;;0.70;0.70;;;11.00;99.90;;;;;;4876511;29;20049;-84
2022/12/23 11:28:30;;;;;;;0.55;0.55;;;10.90;99.90;;;;;;4890266;29;20056;-84
2022/12/23 11:31:07;;;;;;;0.50;0.50;;;10.80;99.90;;;;;;4883094;29;20063;-84
2022/12/23 11:33:45;;;;;;;1.55;1.38;;;10.60;99.90;;;;;;4910680;29;20080;-84
2022/12/23 11:36:22;;;;;;;0.57;0.57;;;10.50;99.90;;;;;;4903370;29;20056;-83
2022/12/23 11:38:52;;;;;;;0.55;0.55;;;10.50;99.90;;;;;;4878375;29;20052;-84
2022/12/23 11:41:23;;;;;;;0.60;0.60;;;10.50;99.90;;;;;;4873638;29;20526;-84
2022/12/23 11:44:00;;;;;;;0.50;0.50;;;10.50;99.90;;;;;;4868863;29;20053;-84
2022/12/23 11:46:30;;;;;;;0.65;0.65;;;10.50;99.90;;;;;;4873537;29;20045;-83
2022/12/23 11:49:16;;;;;;;1.10;1.10;;;10.50;99.90;;;;;;4865007;29;20045;-84
2022/12/23 11:52:17;;;;;;;0.63;0.60;;;10.50;99.90;;;;;;4893020;29;20753;-84
2022/12/23 11:54:54;;;;;;;0.40;0.40;;;10.50;99.90;;;;;;4846170;29;20049;-84
2022/12/23 11:57:36;;;;;;;0.45;0.45;;;10.50;99.90;;;;;;4899051;29;20057;-84
2022/12/23 12:00:06;;;;;;;0.50;0.50;;;10.40;99.90;;;;;;4871746;29;20452;-84
2022/12/23 12:02:43;;;;;;;0.73;0.73;;;10.50;99.90;;;;;;4869156;29;20516;-83
2022/12/23 12:05:40;;;;;;;0.90;0.90;;;10.50;99.90;;;;;;4868228;29;20045;-84
2022/12/23 12:08:13;;;;;;;1.55;1.02;;;10.50;99.90;;;;;;4838947;29;20057;-84
2022/12/23 12:10:41;;;;;;;0.95;0.65;;;10.50;99.90;;;;;;4885244;29;20386;-85
2022/12/23 12:13:29;;;;;;;0.90;0.90;;;10.60;99.90;;;;;;4872512;29;20045;-84
2022/12/23 12:16:00;;;;;;;1.55;0.80;;;10.40;99.90;;;;;;4902698;29;20068;-84
2022/12/23 12:18:28;;;;;;;0.98;0.70;;;10.50;99.90;;;;;;4887263;29;20060;-83
2022/12/23 12:21:02;;;;;;;1.25;1.00;;;10.40;99.90;;;;;;4858540;29;20075;-84
2022/12/23 12:23:39;;;;;;;6.10;0.75;;;10.50;99.90;;;;;;4878840;29;20064;-84
2022/12/23 12:26:17;;;;;;;2.30;1.13;;;10.60;99.90;;;;;;4841413;29;20057;-85
2022/12/23 12:28:55;;;;;;;0.50;0.50;;;10.70;99.90;;;;;;4872475;29;20049;-84
2022/12/23 12:31:34;;;;;;;0.80;0.80;;;10.60;99.90;;;;;;4886202;29;20556;-83
2022/12/23 12:34:01;;;;;;;1.00;1.00;;;10.70;99.90;;;;;;4871405;29;20056;-84
2022/12/23 12:37:07;;;;;;;0.60;0.60;;;10.70;99.90;;;;;;4855103;29;20133;-84
2022/12/23 12:39:40;;;;;;;0.70;0.70;;;10.70;99.90;;;;;;4884725;29;20056;-84
2022/12/23 12:42:19;;;;;;;0.70;0.70;;;10.80;99.90;;;;;;4885780;29;20647;-83
2022/12/23 12:45:06;;;;;;;0.85;0.73;;;10.80;99.90;;;;;;4870907;29;20049;-85
2022/12/23 12:48:01;;;;;;;0.90;0.70;;;10.80;99.90;;;;;;4870933;29;20049;-85
2022/12/23 12:51:23;;;;;;;1.95;0.88;;;10.80;99.90;;;;;;4873248;29;20055;-84
2022/12/23 12:54:12;;;;;;;0.82;0.82;;;10.80;99.90;;;;;;4872988;29;20421;-84
2022/12/23 12:56:48;;;;;;;0.75;0.75;;;10.90;99.90;;;;;;4889135;29;20068;-84
2022/12/23 12:59:18;;;;;;;0.77;0.70;;;10.80;99.90;;;;;;4889768;29;20115;-85
2022/12/23 13:02:18;;;;;;;1.20;0.95;;;10.80;99.90;;;;;;4874296;29;20067;-84
2022/12/23 13:05:04;;;;;;;0.88;0.88;;;10.80;99.90;;;;;;4881479;29;20526;-84
2022/12/23 13:07:53;;;;;;;1.50;0.80;;;10.70;99.90;;;;;;4885235;29;20082;-84
2022/12/23 13:10:30;;;;;;;0.63;0.63;;;10.70;99.90;;;;;;4903773;29;20044;-84
2022/12/23 13:13:06;;;;;;;4.15;1.27;;;10.60;99.90;;;;;;4858636;29;20504;-84
2022/12/23 13:15:49;;;;;;;0.60;0.60;;;10.60;99.90;;;;;;4853836;29;20440;-82
2022/12/23 13:18:38;;;;;;;0.70;0.70;;;10.50;99.90;;;;;;4873582;29;20056;-82
2022/12/23 13:21:17;;;;;;;0.73;0.73;;;10.50;99.90;;;;;;4887111;29;20052;-82
2022/12/23 13:24:12;;;;;;;1.38;0.60;;;10.40;99.90;;;;;;4891694;29;20056;-82
2022/12/23 13:27:05;;;;;;;0.50;0.50;;;10.40;99.90;;;;;;4860981;29;20045;-82
2022/12/23 13:29:55;;;;;;;1.85;0.80;;;10.30;99.90;;;;;;4859117;29;20064;-82
2022/12/23 13:32:24;;;;;;;;;;;10.20;99.90;;;;;;4889362;29;20064;-81
2022/12/23 13:34:56;;;;;;;1.08;0.70;;;10.20;99.90;;;;;;4855963;29;19924;-82
2022/12/23 13:37:45;;;;;;;0.60;0.60;;;10.20;99.90;;;;;;4885987;29;20068;-80
2022/12/23 13:40:26;;;;;;;0.50;0.50;;;10.20;99.90;;;;;;4856170;29;20075;-82
2022/12/23 13:43:01;;;;;;;0.95;0.82;;;10.10;99.90;;;;;;4857353;29;20410;-81
2022/12/23 13:45:37;;;;;;;1.00;0.95;;;10.20;99.90;;;;;;4856495;29;20144;-81
2022/12/23 13:48:14;;;;;;;1.60;0.80;;;10.10;99.90;;;;;;4856962;29;21364;-82
2022/12/23 13:50:49;;;;;;;2.45;1.73;;;10.10;99.90;;;;;;4855414;29;20080;-82
2022/12/23 13:53:38;;;;;;;0.98;0.98;;;10.10;99.90;;;;;;4854120;29;20049;-82
2022/12/23 13:56:29;;;;;;;0.70;0.70;;;10.10;99.90;;;;;;4856848;29;20041;-82